createdAt,value
2023-03-10T00:03:20.698Z,12.37
2023-03-10T00:08:26.107Z,11.00
2023-03-10T00:13:31.446Z,13.73
2023-03-10T00:18:34.741Z,15.20
2023-03-10T00:23:37.953Z,13.07
2023-03-10T00:28:43.089Z,15.37
2023-03-10T00:33:46.641Z,10.77
2023-03-10T00:38:51.808Z,12.50
2023-03-10T00:43:56.428Z,11.33
2023-03-10T00:48:59.538Z,13.67
2023-03-10T00:54:06.216Z,11.27
2023-03-10T00:59:13.166Z,11.97
2023-03-10T01:04:18.889Z,12.00
2023-03-10T01:09:22.137Z,13.03
2023-03-10T01:14:26.528Z,14.47
2023-03-10T01:19:29.586Z,16.20
2023-03-10T01:24:34.829Z,13.83
2023-03-10T01:29:39.369Z,16.07
2023-03-10T01:34:42.379Z,11.70
2023-03-10T01:39:45.400Z,13.53
2023-03-10T01:45:09.590Z,13.13
2023-03-10T01:50:16.194Z,13.73
2023-03-10T01:55:25.746Z,14.83
2023-03-10T02:00:30.781Z,19.37
2023-03-10T02:05:35.153Z,17.20
2023-03-10T02:10:38.953Z,19.80
2023-03-10T02:15:44.073Z,18.50
2023-03-10T02:20:57.284Z,14.97
2023-03-10T02:26:06.915Z,14.77
2023-03-10T02:31:13.220Z,11.57
2023-03-10T02:36:22.556Z,14.17
2023-03-10T02:41:30.689Z,18.90
2023-03-10T02:46:35.778Z,15.80
2023-03-10T02:51:41.933Z,19.37
2023-03-10T02:56:48.610Z,26.17
2023-03-10T03:01:53.382Z,21.83
2023-03-10T03:06:56.828Z,22.63
2023-03-10T03:12:00.143Z,17.90
2023-03-10T03:17:07.489Z,18.07
2023-03-10T03:22:10.919Z,27.03
2023-03-10T03:27:15.116Z,21.83
2023-03-10T03:32:19.818Z,27.93
2023-03-10T03:37:23.469Z,30.57
2023-03-10T03:42:26.861Z,23.47
2023-03-10T03:47:32.549Z,27.47
2023-03-10T03:52:36.478Z,25.33
2023-03-10T03:57:46.079Z,23.47
2023-03-10T04:02:51.596Z,29.77
2023-03-10T04:07:55.088Z,23.87
2023-03-10T04:12:59.044Z,19.13
2023-03-10T04:18:05.358Z,27.50
2023-03-10T04:23:08.936Z,34.40
2023-03-10T04:28:13.375Z,34.23
2023-03-10T04:33:18.113Z,30.20
2023-03-10T04:38:24.206Z,28.50
2023-03-10T04:43:29.064Z,26.20
2023-03-10T04:48:34.827Z,34.90
2023-03-10T04:53:38.696Z,32.20
2023-03-10T04:58:42.218Z,29.90
2023-03-10T05:03:47.197Z,38.47
2023-03-10T05:08:50.655Z,38.60
2023-03-10T05:13:56.355Z,35.17
2023-03-10T05:19:01.184Z,30.50
2023-03-10T05:24:07.469Z,38.73
2023-03-10T05:29:10.761Z,35.03
2023-03-10T05:34:23.820Z,30.33
2023-03-10T05:39:27.958Z,35.23
2023-03-10T05:44:33.221Z,31.67
2023-03-10T05:49:39.880Z,29.13
2023-03-10T05:54:44.755Z,37.47
2023-03-10T05:59:49.865Z,26.83
2023-03-10T06:04:54.781Z,19.53
2023-03-10T06:09:57.892Z,20.17
2023-03-10T06:15:01.063Z,21.83
2023-03-10T06:20:13.153Z,23.73
2023-03-10T06:25:16.214Z,16.80
2023-03-10T06:30:19.503Z,17.67
2023-03-10T06:35:24.169Z,13.37
2023-03-10T06:40:27.693Z,15.83
2023-03-10T06:45:30.775Z,26.93
2023-03-10T06:50:35.607Z,14.20
2023-03-10T06:55:39.209Z,15.50
2023-03-10T07:00:42.496Z,21.53
2023-03-10T07:05:46.937Z,14.47
2023-03-10T07:10:51.689Z,14.70
2023-03-10T07:15:55.250Z,11.40
2023-03-10T07:21:02.996Z,13.87
2023-03-10T07:26:09.027Z,13.07
2023-03-10T07:31:14.636Z,12.37
2023-03-10T07:36:20.807Z,20.47
2023-03-10T07:41:24.550Z,13.40
2023-03-10T07:46:27.710Z,20.37
2023-03-10T07:51:33.129Z,14.30
2023-03-10T07:56:36.302Z,12.87
2023-03-10T08:01:39.390Z,12.77
2023-03-10T08:06:44.254Z,13.37
2023-03-10T08:11:47.455Z,12.77
2023-03-10T08:16:50.567Z,13.90
2023-03-10T08:21:57.587Z,11.60
2023-03-10T08:27:00.813Z,13.30
2023-03-10T08:32:04.289Z,9.97
2023-03-10T08:37:09.276Z,10.13
2023-03-10T08:42:13.861Z,12.97
2023-03-10T08:47:17.207Z,13.73
2023-03-10T08:52:21.746Z,10.70
2023-03-10T08:57:25.165Z,10.47
2023-03-10T09:02:29.635Z,12.83
2023-03-10T09:07:34.404Z,9.47
2023-03-10T09:12:40.748Z,13.17
2023-03-10T09:17:43.861Z,13.13
2023-03-10T09:22:48.317Z,10.23
2023-03-10T09:27:51.895Z,9.43
2023-03-10T09:32:56.340Z,9.20
2023-03-10T09:38:00.909Z,10.87
2023-03-10T09:43:07.530Z,8.80
2023-03-10T09:48:26.507Z,7.67
2023-03-10T09:53:45.074Z,8.63
2023-03-10T09:58:51.371Z,5.20
2023-03-10T10:03:56.505Z,6.80
2023-03-10T10:09:07.982Z,5.97
2023-03-10T10:14:28.357Z,5.43
2023-03-10T10:19:34.868Z,6.53
2023-03-10T10:24:40.917Z,7.43
2023-03-10T10:29:47.238Z,8.03
2023-03-10T10:34:50.342Z,13.27
2023-03-10T10:39:57.133Z,8.40
2023-03-10T10:45:04.435Z,7.80
2023-03-10T10:50:18.684Z,5.80
2023-03-10T10:55:28.386Z,7.67
2023-03-10T11:00:34.542Z,7.37
2023-03-10T11:05:38.782Z,9.33
2023-03-10T11:10:47.044Z,15.63
2023-03-10T11:15:57.300Z,7.37
2023-03-10T11:21:12.266Z,10.20
2023-03-10T11:26:38.203Z,6.07
2023-03-10T11:31:50.957Z,9.20
2023-03-10T11:37:06.458Z,8.87
2023-03-10T11:42:18.245Z,12.10
2023-03-10T11:47:42.961Z,4.47
2023-03-10T11:52:47.703Z,8.37
2023-03-10T11:58:00.638Z,3.93
2023-03-10T12:03:13.460Z,4.60
2023-03-10T12:08:19.000Z,4.37
2023-03-10T12:13:31.862Z,2.70
2023-03-10T12:18:35.119Z,2.50
2023-03-10T12:23:42.276Z,3.20
2023-03-10T12:28:46.872Z,3.10
2023-03-10T12:33:55.886Z,2.93
2023-03-10T12:38:59.918Z,3.10
2023-03-10T12:44:28.712Z,2.77
2023-03-10T12:49:37.508Z,2.47
2023-03-10T12:54:55.628Z,2.20
2023-03-10T13:00:06.862Z,1.90
2023-03-10T13:05:21.639Z,2.33
2023-03-10T13:10:31.948Z,2.40
2023-03-10T13:15:37.145Z,2.20
2023-03-10T13:20:40.373Z,2.70
2023-03-10T13:25:53.301Z,3.23
2023-03-10T13:31:18.313Z,3.53
2023-03-10T13:36:23.395Z,5.03
2023-03-10T13:41:27.343Z,3.20
2023-03-10T13:46:34.425Z,3.37
2023-03-10T13:51:39.103Z,3.63
2023-03-10T13:56:44.601Z,3.83
2023-03-10T14:01:53.663Z,4.10
2023-03-10T14:07:08.974Z,4.40
2023-03-10T14:12:13.633Z,4.93
2023-03-10T14:17:33.881Z,5.80
2023-03-10T14:22:40.679Z,8.13
2023-03-10T14:27:46.917Z,10.17
2023-03-10T14:32:52.059Z,8.63
2023-03-10T14:37:55.517Z,12.67
2023-03-10T14:43:01.769Z,11.90
2023-03-10T14:48:20.083Z,9.60
2023-03-10T14:53:25.058Z,6.37
2023-03-10T14:58:30.746Z,6.93
2023-03-10T15:03:35.357Z,7.50
2023-03-10T15:08:39.116Z,8.00
2023-03-10T15:13:42.333Z,8.70
2023-03-10T15:18:49.234Z,10.13
2023-03-10T15:23:52.497Z,7.60
2023-03-10T15:28:55.591Z,5.50
2023-03-10T15:33:59.982Z,6.43
2023-03-10T15:39:06.092Z,5.43
2023-03-10T15:44:10.174Z,7.63
2023-03-10T15:49:14.620Z,7.70
2023-03-10T15:54:17.829Z,8.90
2023-03-10T15:59:21.054Z,7.97
2023-03-10T16:04:26.045Z,6.83
2023-03-10T16:09:29.648Z,9.17
2023-03-10T16:14:32.801Z,6.70
2023-03-10T16:19:37.210Z,6.07
2023-03-10T16:24:40.407Z,2.77
2023-03-10T16:29:43.860Z,2.87
2023-03-10T16:34:48.864Z,1.13
2023-03-10T16:39:55.033Z,1.30
2023-03-10T16:44:58.213Z,3.50
2023-03-10T16:50:04.965Z,2.60
2023-03-10T16:55:09.538Z,1.80
2023-03-10T17:00:14.312Z,4.13
2023-03-10T17:05:31.239Z,2.90
2023-03-10T17:10:36.022Z,4.00
2023-03-10T17:15:39.244Z,2.53
2023-03-10T17:20:43.687Z,1.83
2023-03-10T17:25:47.110Z,4.60
2023-03-10T17:30:50.432Z,4.33
2023-03-10T17:35:55.343Z,2.13
2023-03-10T17:41:00.028Z,2.30
2023-03-10T17:46:05.665Z,1.47
2023-03-10T17:51:11.055Z,1.67
2023-03-10T17:56:14.628Z,2.73
2023-03-10T18:01:20.660Z,2.37
2023-03-10T18:06:27.969Z,1.93
2023-03-10T18:11:31.513Z,2.70
2023-03-10T18:16:36.470Z,1.90
2023-03-10T18:21:41.070Z,5.30
2023-03-10T18:26:45.777Z,4.93
2023-03-10T18:31:48.802Z,5.53
2023-03-10T18:36:53.313Z,5.13
2023-03-10T18:41:56.542Z,7.83
2023-03-10T18:46:59.916Z,8.20
2023-03-10T18:52:07.964Z,5.67
2023-03-10T18:57:15.004Z,4.53
2023-03-10T19:02:18.260Z,4.33
2023-03-10T19:07:22.819Z,4.40
2023-03-10T19:12:26.624Z,4.17
2023-03-10T19:17:30.477Z,5.60
2023-03-10T19:22:35.211Z,5.57
2023-03-10T19:27:40.492Z,8.33
2023-03-10T19:32:44.308Z,7.40
2023-03-10T19:37:49.253Z,7.07
2023-03-10T19:42:52.410Z,7.13
2023-03-10T19:47:57.984Z,3.97
2023-03-10T19:53:03.697Z,4.60
2023-03-10T19:58:06.829Z,6.60
2023-03-10T20:03:11.420Z,7.80
2023-03-10T20:08:16.063Z,5.27
2023-03-10T20:13:19.367Z,10.03
2023-03-10T20:18:22.838Z,9.30
2023-03-10T20:23:27.302Z,5.73
2023-03-10T20:28:30.958Z,9.37
2023-03-10T20:33:35.469Z,5.80
2023-03-10T20:38:40.000Z,4.27
2023-03-10T20:43:44.393Z,7.47
2023-03-10T20:48:49.703Z,4.80
2023-03-10T20:53:54.257Z,8.47
2023-03-10T20:58:59.571Z,7.10
2023-03-10T21:04:05.504Z,5.23
2023-03-10T21:09:10.035Z,7.87
2023-03-10T21:14:13.432Z,7.90
2023-03-10T21:19:16.918Z,6.27
2023-03-10T21:24:21.837Z,5.10
2023-03-10T21:29:27.946Z,8.57
2023-03-10T21:34:32.008Z,6.27
2023-03-10T21:39:36.465Z,18.23
2023-03-10T21:44:39.815Z,8.33
2023-03-10T21:49:42.906Z,4.10
2023-03-10T21:54:47.875Z,4.37
2023-03-10T21:59:51.198Z,4.30
2023-03-10T22:04:54.592Z,5.33
2023-03-10T22:09:59.198Z,8.60
2023-03-10T22:15:04.762Z,8.63
2023-03-10T22:20:10.109Z,6.67
2023-03-10T22:25:18.325Z,5.37
2023-03-10T22:30:22.216Z,2.87
2023-03-10T22:35:25.434Z,7.63
2023-03-10T22:40:30.959Z,5.30
2023-03-10T22:45:34.620Z,8.53
2023-03-10T22:50:40.679Z,9.37
2023-03-10T22:55:46.660Z,8.93
2023-03-10T23:00:49.724Z,7.90
2023-03-10T23:05:52.834Z,8.10
2023-03-10T23:10:57.523Z,4.23
2023-03-10T23:16:00.797Z,7.27
2023-03-10T23:21:05.185Z,5.87
2023-03-10T23:26:09.649Z,4.10
2023-03-10T23:31:15.614Z,4.60
2023-03-10T23:36:19.164Z,7.27
2023-03-10T23:41:23.542Z,2.93
2023-03-10T23:46:26.737Z,3.27
2023-03-10T23:51:30.963Z,3.70
2023-03-10T23:56:35.385Z,5.50
